Time;durP1;ratioP1;P1;durP2;ratioP2;P2;SDS_P1;SDS_P2;PMS_P1;PMS_P2;Temp;Humidity;BMP_temperature;BMP_pressure;BME280_temperature;BME280_humidity;BME280_pressure;Samples;Min_cycle;Max_cycle;Signal;HPM_P1;HPM_P2
2022/05/08 00:00:27;;;;;;;12.00;10.80;;;;;;;17.10;50.17;97924.31;4996961;28;20443;-71
2022/05/08 00:02:55;;;;;;;14.87;12.30;;;;;;;17.13;49.99;97923.16;5014796;28;20180;-73
2022/05/08 00:05:21;;;;;;;20.70;11.53;;;;;;;17.13;49.81;97923.16;5014288;28;20186;-70
2022/05/08 00:07:46;;;;;;;15.70;12.93;;;;;;;16.99;50.27;97928.22;5014230;28;20927;-69
2022/05/08 00:10:12;;;;;;;15.50;11.73;;;;;;;16.86;50.54;97923.44;4996424;28;20509;-72
2022/05/08 00:12:38;;;;;;;14.63;12.03;;;;;;;16.95;50.51;97920.81;4996747;28;20235;-70
2022/05/08 00:15:04;;;;;;;14.30;11.37;;;;;;;16.92;50.50;97916.63;5014278;28;20271;-70
2022/05/08 00:17:34;;;;;;;12.73;10.87;;;;;;;16.96;50.32;97920.63;5013987;28;20180;-69
2022/05/08 00:20:00;;;;;;;14.63;12.27;;;;;;;16.99;50.01;97917.63;5013842;28;20942;-71
2022/05/08 00:22:26;;;;;;;14.00;12.13;;;;;;;16.89;50.00;97920.47;4996615;28;20435;-70
2022/05/08 00:24:51;;;;;;;15.20;11.70;;;;;;;16.98;49.74;97920.44;5013781;28;20523;-69
2022/05/08 00:27:17;;;;;;;13.40;12.07;;;;;;;17.05;49.59;97921.38;5013739;28;20659;-70
2022/05/08 00:29:42;;;;;;;14.13;11.90;;;;;;;16.94;50.08;97919.97;4996520;28;20205;-72
2022/05/08 00:32:08;;;;;;;13.97;12.50;;;;;;;16.96;50.07;97920.63;4996069;28;20269;-70
2022/05/08 00:34:34;;;;;;;13.87;11.40;;;;;;;16.81;50.37;97920.53;4963145;28;20181;-70
2022/05/08 00:36:59;;;;;;;13.10;11.80;;;;;;;16.87;50.21;97916.34;4998259;28;20992;-71
2022/05/08 00:39:25;;;;;;;12.70;11.37;;;;;;;16.76;50.59;97914.09;5013787;28;20192;-70
2022/05/08 00:41:50;;;;;;;13.30;12.00;;;;;;;16.82;50.68;97921.31;4996596;28;20196;-70
2022/05/08 00:44:16;;;;;;;15.63;12.70;;;;;;;16.68;51.22;97915.78;5013612;28;20675;-70
2022/05/08 00:46:41;;;;;;;22.60;13.17;;;;;;;16.65;51.30;97910.81;5013443;28;20184;-70
2022/05/08 00:49:07;;;;;;;14.07;11.73;;;;;;;16.71;50.99;97919.91;5013327;28;20275;-69
2022/05/08 00:51:33;;;;;;;15.30;11.93;;;;;;;16.63;51.23;97914.66;5013377;28;20212;-70
2022/05/08 00:54:02;;;;;;;14.00;12.60;;;;;;;16.59;51.21;97922.13;5013127;28;20608;-70
2022/05/08 00:56:27;;;;;;;16.20;11.53;;;;;;;16.49;50.86;97929.44;5005852;28;20478;-70
2022/05/08 00:58:54;;;;;;;14.37;12.87;;;;;;;16.33;51.32;97931.16;4996338;28;20424;-70
2022/05/08 01:01:20;;;;;;;13.87;11.73;;;;;;;16.32;51.55;97929.50;5013280;28;20224;-70
2022/05/08 01:03:46;;;;;;;13.03;11.60;;;;;;;16.20;51.95;97941.47;5013512;28;20432;-70
2022/05/08 01:06:13;;;;;;;13.63;11.80;;;;;;;16.43;51.39;97936.25;4995547;28;20918;-70
2022/05/08 01:08:40;;;;;;;13.80;12.30;;;;;;;16.55;50.98;97926.09;5007568;28;20184;-70
2022/05/08 01:11:07;;;;;;;13.33;11.93;;;;;;;16.60;50.53;97929.06;5012813;28;20455;-70
2022/05/08 01:13:33;;;;;;;14.00;12.33;;;;;;;16.54;50.58;97927.09;5013155;28;20497;-70
2022/05/08 01:15:58;;;;;;;14.07;11.57;;;;;;;16.42;51.25;97927.47;4995554;28;21021;-70
2022/05/08 01:18:24;;;;;;;14.23;12.37;;;;;;;16.45;51.40;97922.84;5005171;28;20191;-69
2022/05/08 01:20:50;;;;;;;14.30;12.87;;;;;;;16.38;51.51;97934.09;4995729;28;20204;-70
2022/05/08 01:23:18;;;;;;;15.10;12.10;;;;;;;16.36;51.63;97933.47;4995016;28;20694;-72
2022/05/08 01:25:55;;;;;;;14.00;12.50;;;;;;;16.32;51.58;97926.88;5013244;28;20259;-70
2022/05/08 01:28:21;;;;;;;17.13;12.40;;;;;;;16.11;51.92;97922.97;5012705;28;20461;-71
2022/05/08 01:30:49;;;;;;;14.70;13.30;;;;;;;16.10;52.04;97923.13;5012827;28;20443;-70
2022/05/08 01:33:15;;;;;;;12.93;11.63;;;;;;;16.15;51.78;97923.47;5012600;28;20534;-71
2022/05/08 01:35:42;;;;;;;13.60;12.20;;;;;;;16.20;52.01;97917.66;5013242;28;20878;-72
2022/05/08 01:38:08;;;;;;;15.27;12.40;;;;;;;16.22;51.77;97913.03;5012447;28;20191;-70
2022/05/08 01:40:34;;;;;;;18.60;12.50;;;;;;;16.21;51.93;97911.38;5015788;28;20609;-71
2022/05/08 01:43:00;;;;;;;13.73;12.33;;;;;;;16.20;52.13;97912.38;4994993;28;20526;-70
2022/05/08 01:45:25;;;;;;;16.07;12.43;;;;;;;16.09;52.48;97910.91;5012624;28;20689;-70
2022/05/08 01:50:39;;;;;;;13.83;12.53;;;;;;;16.06;51.95;97917.38;5005919;28;20200;-69
2022/05/08 01:53:05;;;;;;;14.90;12.30;;;;;;;16.11;51.75;97915.06;5012344;28;20435;-69
2022/05/08 01:55:31;;;;;;;13.33;11.93;;;;;;;16.10;51.60;97909.91;5012024;28;20821;-69
2022/05/08 01:57:57;;;;;;;14.10;12.60;;;;;;;15.88;52.33;97914.13;5012087;28;20188;-70
2022/05/08 02:00:23;;;;;;;15.67;13.50;;;;;;;15.88;52.31;97914.94;5012151;28;20675;-70
2022/05/08 02:02:49;;;;;;;14.20;12.63;;;;;;;15.84;52.81;97910.94;5012128;28;20488;-70
2022/05/08 02:05:18;;;;;;;18.40;13.83;;;;;;;15.83;52.61;97911.94;5012182;28;20188;-70
2022/05/08 02:07:46;;;;;;;15.53;13.70;;;;;;;15.88;52.25;97911.50;5012195;28;20439;-69
2022/05/08 02:10:12;;;;;;;13.83;12.33;;;;;;;15.99;52.44;97916.41;4994511;28;20450;-70
2022/05/08 02:12:38;;;;;;;14.47;12.97;;;;;;;15.88;52.22;97919.41;4994767;28;20436;-68
2022/05/08 02:15:14;;;;;;;13.83;12.37;;;;;;;15.92;52.42;97920.72;5011528;28;20830;-70
2022/05/08 02:17:40;;;;;;;12.70;11.40;;;;;;;16.05;52.27;97915.72;5011619;28;20795;-71
2022/05/08 02:20:07;;;;;;;13.70;11.97;;;;;;;16.11;51.95;97914.22;5011558;28;20431;-70
2022/05/08 02:22:34;;;;;;;14.77;13.37;;;;;;;16.06;52.70;97911.28;5011638;28;20180;-70
2022/05/08 02:24:59;;;;;;;15.33;13.63;;;;;;;16.03;52.63;97915.06;5011819;28;20446;-70
2022/05/08 02:27:25;;;;;;;16.60;13.70;;;;;;;15.98;52.82;97909.47;4994000;28;20423;-71
2022/05/08 02:29:51;;;;;;;14.87;12.90;;;;;;;15.90;52.43;97917.41;5011767;28;20713;-71
2022/05/08 02:32:17;;;;;;;15.43;13.47;;;;;;;15.89;52.81;97913.94;5011340;28;20196;-70
2022/05/08 02:34:43;;;;;;;14.63;13.13;;;;;;;15.97;51.98;97913.91;5011802;28;20847;-71
2022/05/08 02:37:08;;;;;;;15.10;12.90;;;;;;;16.01;52.44;97911.75;5010989;28;20553;-71
2022/05/08 02:39:34;;;;;;;16.80;14.33;;;;;;;15.93;52.35;97914.44;4994481;28;20180;-72
2022/05/08 02:41:59;;;;;;;18.93;13.10;;;;;;;15.94;52.39;97908.16;4993690;28;20215;-70
2022/05/08 02:44:25;;;;;;;14.63;13.23;;;;;;;15.71;53.25;97914.13;5011619;28;20579;-71
2022/05/08 02:46:50;;;;;;;16.40;14.13;;;;;;;15.77;52.92;97916.06;5011203;28;20195;-69
2022/05/08 02:49:16;;;;;;;15.67;14.03;;;;;;;15.86;52.93;97911.63;5011356;28;20180;-70
2022/05/08 02:51:41;;;;;;;21.33;14.50;;;;;;;15.92;52.66;97910.13;5011596;28;20200;-69
2022/05/08 02:54:07;;;;;;;15.73;14.17;;;;;;;15.99;52.82;97912.94;5010719;28;20184;-71
2022/05/08 02:59:17;;;;;;;16.57;14.03;;;;;;;15.81;52.97;97909.47;5011510;28;20330;-71
2022/05/08 03:01:43;;;;;;;17.13;13.57;;;;;;;15.75;53.03;97920.69;5011353;28;20542;-69
2022/05/08 03:04:08;;;;;;;14.80;13.13;;;;;;;15.86;52.76;97908.19;5011447;28;20203;-69
2022/05/08 03:06:34;;;;;;;17.70;14.17;;;;;;;15.89;52.63;97906.03;5011229;28;20187;-70
2022/05/08 03:08:59;;;;;;;16.30;14.50;;;;;;;15.76;52.63;97905.69;5010346;28;20607;-71
2022/05/08 03:11:25;;;;;;;24.23;14.43;;;;;;;15.77;53.04;97913.44;4993642;28;20281;-71
2022/05/08 03:13:51;;;;;;;16.13;13.73;;;;;;;15.70;52.94;97912.47;5011002;28;20216;-70
2022/05/08 03:16:17;;;;;;;15.17;13.50;;;;;;;15.70;53.12;97912.47;4993144;28;20215;-70
2022/05/08 03:18:45;;;;;;;16.50;14.90;;;;;;;15.57;53.76;97920.91;5010906;28;20517;-70
2022/05/08 03:21:12;;;;;;;16.47;14.77;;;;;;;15.56;53.49;97916.63;5010739;28;20284;-69
2022/05/08 03:23:39;;;;;;;15.50;13.83;;;;;;;15.46;53.81;97915.94;5010730;28;20435;-69
2022/05/08 03:26:05;;;;;;;15.63;13.73;;;;;;;15.44;53.82;97921.41;5010605;28;20427;-70
2022/05/08 03:28:31;;;;;;;16.20;14.27;;;;;;;15.45;53.47;97928.34;4993136;28;20437;-71
2022/05/08 03:30:57;;;;;;;18.43;14.37;;;;;;;15.31;53.85;97921.91;5011130;28;20206;-70
2022/05/08 03:33:22;;;;;;;15.37;13.73;;;;;;;15.25;53.80;97929.69;5010340;28;20586;-69
2022/05/08 03:35:48;;;;;;;15.20;13.80;;;;;;;15.30;53.63;97932.63;4993120;28;20270;-70
2022/05/08 03:38:14;;;;;;;15.37;13.87;;;;;;;15.29;53.67;97925.69;5009851;28;20216;-72
2022/05/08 03:40:39;;;;;;;14.90;13.40;;;;;;;15.35;53.49;97920.59;5010639;28;20899;-70
2022/05/08 03:43:05;;;;;;;17.70;13.60;;;;;;;15.39;53.28;97933.47;4993264;28;20547;-70
2022/05/08 03:45:31;;;;;;;15.70;13.80;;;;;;;15.27;53.58;97927.69;4999686;28;20262;-71
2022/05/08 03:47:57;;;;;;;15.53;13.47;;;;;;;15.24;53.77;97930.66;5008725;28;20184;-70
2022/05/08 03:50:22;;;;;;;15.90;14.17;;;;;;;15.30;54.35;97932.63;5017456;28;20208;-70
2022/05/08 03:52:48;;;;;;;16.67;14.20;;;;;;;15.41;53.40;97923.56;4992163;28;20242;-70
2022/05/08 03:55:17;;;;;;;16.70;14.40;;;;;;;15.46;53.35;97922.06;5010187;28;20628;-69
2022/05/08 03:57:44;;;;;;;17.00;15.20;;;;;;;15.29;53.37;97926.53;5009709;28;20446;-69
2022/05/08 04:00:11;;;;;;;14.97;13.30;;;;;;;15.28;53.46;97927.53;5009971;28;20428;-72
2022/05/08 04:02:36;;;;;;;15.90;13.23;;;;;;;15.19;53.77;97929.34;5010170;28;20868;-69
2022/05/08 04:05:03;;;;;;;15.70;14.10;;;;;;;15.13;53.67;97934.44;5009186;28;20453;-71
2022/05/08 04:07:31;;;;;;;16.57;14.60;;;;;;;15.13;53.93;97937.91;5009776;28;20224;-70
2022/05/08 04:09:57;;;;;;;15.37;13.83;;;;;;;15.00;54.66;97941.03;5010273;28;20431;-69
2022/05/08 04:12:23;;;;;;;18.50;15.33;;;;;;;15.14;54.65;97936.91;5010019;28;20953;-69
2022/05/08 04:14:49;;;;;;;15.53;13.90;;;;;;;15.22;54.01;97940.56;5009108;28;21017;-71
2022/05/08 04:17:15;;;;;;;14.97;13.47;;;;;;;15.13;53.36;97943.19;5009040;28;20258;-72
2022/05/08 04:19:42;;;;;;;15.60;13.40;;;;;;;15.09;53.69;97946.31;4994308;28;20200;-70
2022/05/08 04:24:51;;;;;;;14.93;13.47;;;;;;;14.93;54.32;97940.03;5014088;28;21037;-70
2022/05/08 04:27:17;;;;;;;15.33;13.83;;;;;;;14.90;54.31;97943.00;5012983;28;20438;-72
2022/05/08 04:29:43;;;;;;;14.90;13.30;;;;;;;14.96;54.63;97946.78;4991437;28;20691;-70
2022/05/08 04:32:08;;;;;;;18.30;13.20;;;;;;;14.93;53.99;97941.84;4977084;28;20299;-70
2022/05/08 04:34:34;;;;;;;14.90;13.37;;;;;;;14.96;54.31;97938.88;5013400;28;20194;-71
2022/05/08 04:36:59;;;;;;;16.10;13.93;;;;;;;14.90;54.19;97943.81;5012386;28;20675;-71
2022/05/08 04:39:24;;;;;;;15.93;14.33;;;;;;;14.96;54.45;97944.16;5013556;28;20267;-70
2022/05/08 04:41:50;;;;;;;15.80;14.20;;;;;;;14.94;54.31;97940.84;5013362;28;20212;-71
2022/05/08 04:44:15;;;;;;;18.10;13.90;;;;;;;14.86;54.50;97947.78;5012322;28;20216;-69
2022/05/08 04:46:41;;;;;;;21.40;14.73;;;;;;;14.70;55.15;97955.63;5012706;28;20639;-69
2022/05/08 04:49:06;;;;;;;16.53;14.60;;;;;;;14.87;54.66;97948.59;5012709;28;20212;-70
2022/05/08 04:51:32;;;;;;;15.67;13.70;;;;;;;14.83;54.74;97957.81;5013537;28;20227;-69
2022/05/08 04:53:57;;;;;;;15.93;14.23;;;;;;;14.84;55.11;97960.31;5013268;28;20188;-70
2022/05/08 04:56:23;;;;;;;16.80;15.03;;;;;;;14.97;54.93;97964.28;5012310;28;20295;-70
2022/05/08 04:58:48;;;;;;;18.73;15.57;;;;;;;14.99;55.00;97962.31;5013284;28;20272;-70
2022/05/08 05:01:14;;;;;;;18.10;15.13;;;;;;;15.09;54.75;97962.16;5012278;28;20900;-67
2022/05/08 05:03:41;;;;;;;16.33;14.63;;;;;;;15.22;54.01;97964.31;5012645;28;20203;-68
2022/05/08 05:06:07;;;;;;;17.07;15.27;;;;;;;15.15;54.38;97962.31;5012261;28;20200;-68
2022/05/08 05:08:32;;;;;;;15.10;13.60;;;;;;;15.12;53.97;97967.91;5013175;28;20423;-69
2022/05/08 05:10:58;;;;;;;15.80;13.50;;;;;;;15.18;54.06;97972.56;5013126;28;20266;-69
2022/05/08 05:13:23;;;;;;;19.23;13.37;;;;;;;14.88;54.70;97968.72;5012309;28;20193;-69
2022/05/08 05:15:49;;;;;;;16.67;14.43;;;;;;;15.04;54.54;97970.56;5012849;28;20212;-69
2022/05/08 05:18:14;;;;;;;17.67;13.90;;;;;;;15.07;54.41;97970.25;5011749;28;20190;-68
2022/05/08 05:20:40;;;;;;;16.00;14.27;;;;;;;15.17;54.63;97976.19;5012773;28;20315;-67
2022/05/08 05:23:05;;;;;;;16.90;15.17;;;;;;;15.16;54.34;97979.81;5011762;28;20599;-68
2022/05/08 05:25:31;;;;;;;16.50;14.80;;;;;;;15.27;54.41;97985.78;5012645;28;20181;-69
2022/05/08 05:27:56;;;;;;;17.03;15.23;;;;;;;15.23;54.59;97982.63;5011573;28;20271;-70
2022/05/08 05:30:22;;;;;;;18.80;15.13;;;;;;;15.28;54.20;97982.97;4993335;28;20264;-70
2022/05/08 05:32:47;;;;;;;17.60;15.57;;;;;;;15.25;54.52;97987.78;5011214;28;20199;-70
2022/05/08 05:35:13;;;;;;;17.20;15.43;;;;;;;15.26;54.64;97987.59;5011808;28;20267;-70
2022/05/08 05:37:39;;;;;;;18.90;15.87;;;;;;;15.33;54.74;97985.13;5011047;28;20197;-68
2022/05/08 05:40:06;;;;;;;18.53;15.93;;;;;;;15.26;54.96;97981.47;5011895;28;20268;-70
2022/05/08 05:42:32;;;;;;;15.63;13.97;;;;;;;15.39;54.89;97984.47;5012392;28;20274;-71
2022/05/08 05:44:57;;;;;;;19.20;15.80;;;;;;;15.49;54.54;97979.88;5012141;28;20591;-72
2022/05/08 05:50:08;;;;;;;17.03;15.23;;;;;;;15.45;55.23;97986.47;5011732;28;20278;-69
2022/05/08 05:52:35;;;;;;;21.53;14.93;;;;;;;15.50;54.96;97985.97;4978245;28;20566;-69
2022/05/08 05:55:01;;;;;;;18.03;15.40;;;;;;;15.55;54.73;97993.38;5010510;28;20523;-69
2022/05/08 05:57:26;;;;;;;17.43;15.63;;;;;;;15.60;55.11;97991.09;5013212;28;20431;-70
2022/05/08 05:59:52;;;;;;;17.20;15.40;;;;;;;15.62;54.82;98000.50;5016560;28;20494;-69
2022/05/08 06:02:17;;;;;;;18.43;16.43;;;;;;;15.76;55.11;98001.63;4977060;28;20208;-69
2022/05/08 06:04:43;;;;;;;18.33;15.20;;;;;;;15.85;54.89;97999.03;5011980;28;20184;-70
2022/05/08 06:07:08;;;;;;;17.47;15.77;;;;;;;15.82;55.02;98001.00;5011445;28;20195;-69
2022/05/08 06:09:34;;;;;;;17.77;15.87;;;;;;;15.77;55.63;98000.66;5012123;28;20202;-68
2022/05/08 06:11:59;;;;;;;18.03;16.10;;;;;;;15.83;55.35;98012.38;5011794;28;20235;-71
2022/05/08 06:14:25;;;;;;;21.47;16.77;;;;;;;15.99;55.13;98003.66;5011296;28;20275;-69
2022/05/08 06:16:50;;;;;;;20.50;16.80;;;;;;;16.04;54.94;98008.44;5011727;28;20204;-69
2022/05/08 06:19:16;;;;;;;17.57;15.70;;;;;;;16.00;55.57;98007.09;5011348;28;20185;-69
2022/05/08 06:21:42;;;;;;;19.97;17.43;;;;;;;16.08;55.37;98015.84;5011167;28;20207;-69
2022/05/08 06:24:07;;;;;;;20.00;16.83;;;;;;;16.18;55.52;98012.19;5007329;28;20279;-71
2022/05/08 06:26:33;;;;;;;19.80;16.97;;;;;;;16.26;55.36;98022.75;5009147;28;20184;-69
2022/05/08 06:28:59;;;;;;;20.03;17.77;;;;;;;16.32;55.49;98008.88;5010698;28;20192;-70
2022/05/08 06:31:25;;;;;;;20.93;18.67;;;;;;;16.43;55.60;98019.09;4992756;28;20570;-70
2022/05/08 06:33:51;;;;;;;20.43;17.40;;;;;;;16.61;55.38;98019.84;4993714;28;20428;-70
2022/05/08 06:36:16;;;;;;;20.83;16.60;;;;;;;16.76;55.51;98017.31;5011362;28;20524;-71
2022/05/08 06:38:42;;;;;;;18.90;16.93;;;;;;;16.86;55.20;98020.59;5011576;28;20176;-69
2022/05/08 06:41:08;;;;;;;20.33;18.23;;;;;;;16.92;54.53;98022.53;5010311;28;20417;-69
2022/05/08 06:43:33;;;;;;;22.60;19.07;;;;;;;17.04;54.17;98023.00;5011068;28;20184;-70
2022/05/08 06:45:59;;;;;;;23.93;20.73;;;;;;;16.96;54.34;98017.72;5011254;28;20176;-72
2022/05/08 06:48:27;;;;;;;23.23;20.77;;;;;;;17.04;54.13;98018.53;5010798;28;20175;-70
2022/05/08 06:50:53;;;;;;;27.20;21.63;;;;;;;17.19;54.28;98023.09;5010747;28;20200;-70
2022/05/08 06:53:18;;;;;;;22.83;20.43;;;;;;;17.31;54.17;98018.22;5010342;28;22875;-70
2022/05/08 06:55:45;;;;;;;23.07;19.67;;;;;;;17.37;53.89;98024.63;5010488;28;20212;-71
2022/05/08 06:58:11;;;;;;;21.70;19.40;;;;;;;17.28;53.69;98024.66;5010221;28;20234;-69
2022/05/08 07:03:21;;;;;;;20.87;18.77;;;;;;;17.32;53.99;98031.28;5010943;28;20227;-70
2022/05/08 07:05:47;;;;;;;22.67;20.27;;;;;;;17.46;53.74;98034.19;5011360;28;20506;-70
2022/05/08 07:08:14;;;;;;;23.57;21.10;;;;;;;17.53;53.97;98029.81;5010570;28;20241;-69
2022/05/08 07:10:40;;;;;;;22.33;20.13;;;;;;;17.64;53.71;98040.00;5010861;28;20500;-71
2022/05/08 07:13:05;;;;;;;23.43;20.90;;;;;;;17.77;53.63;98041.22;5011147;28;20450;-69
2022/05/08 07:15:31;;;;;;;20.10;18.00;;;;;;;17.83;52.87;98035.22;5011061;28;20462;-70
2022/05/08 07:17:56;;;;;;;21.60;19.27;;;;;;;17.90;53.10;98041.44;5010766;28;20188;-69
2022/05/08 07:20:23;;;;;;;23.10;20.73;;;;;;;17.99;53.34;98036.13;4993170;28;20215;-70
2022/05/08 07:22:49;;;;;;;22.30;19.87;;;;;;;18.08;53.09;98043.00;5011169;28;20191;-69
2022/05/08 07:25:15;;;;;;;27.63;19.73;;;;;;;18.21;52.85;98031.78;5010730;28;20443;-69
2022/05/08 07:27:40;;;;;;;21.30;18.80;;;;;;;18.34;52.72;98031.94;4993461;28;20183;-70
2022/05/08 07:30:07;;;;;;;19.57;17.63;;;;;;;18.47;52.88;98039.28;4993428;28;20199;-70
2022/05/08 07:32:35;;;;;;;22.57;18.73;;;;;;;18.62;52.56;98033.97;5011051;28;20289;-69
2022/05/08 07:37:46;;;;;;;22.60;18.57;;;;;;;18.88;51.99;98043.28;5010993;28;20570;-70
2022/05/08 07:40:12;;;;;;;21.37;17.93;;;;;;;19.00;51.82;98051.66;4993120;28;20522;-69
2022/05/08 07:42:38;;;;;;;22.03;19.47;;;;;;;19.13;51.68;98050.97;5011014;28;20271;-69
2022/05/08 07:45:06;;;;;;;21.83;17.23;;;;;;;19.11;51.21;98056.47;4992716;28;20435;-69
2022/05/08 07:47:33;;;;;;;19.60;17.70;;;;;;;19.14;50.63;98047.31;5016464;28;20287;-69
2022/05/08 07:49:59;;;;;;;20.30;18.10;;;;;;;19.23;51.19;98048.81;4992713;28;20871;-74
2022/05/08 07:52:24;;;;;;;20.97;17.57;;;;;;;19.34;51.12;98051.00;5010068;28;20599;-69
2022/05/08 07:54:50;;;;;;;18.73;16.83;;;;;;;19.45;50.76;98049.69;5015485;28;20263;-69
2022/05/08 07:57:15;;;;;;;17.53;15.93;;;;;;;19.57;50.49;98051.84;5014089;28;20299;-70
2022/05/08 07:59:41;;;;;;;16.50;14.83;;;;;;;19.65;50.12;98054.41;5014477;28;20214;-69
2022/05/08 08:02:07;;;;;;;18.37;16.40;;;;;;;19.72;49.80;98063.25;5014142;28;20641;-70
2022/05/08 08:04:34;;;;;;;16.83;15.13;;;;;;;19.72;49.77;98059.78;5014555;28;20184;-69
2022/05/08 08:07:01;;;;;;;16.83;15.13;;;;;;;19.75;49.33;98065.53;5013478;28;20424;-69
2022/05/08 08:09:26;;;;;;;14.90;13.50;;;;;;;19.73;48.87;98059.56;5014154;28;20427;-71
2022/05/08 08:11:53;;;;;;;15.60;13.53;;;;;;;19.85;49.52;98059.88;5014366;28;20447;-69
2022/05/08 08:14:20;;;;;;;16.07;14.37;;;;;;;20.01;49.44;98065.97;4996601;28;20203;-69
2022/05/08 08:16:45;;;;;;;15.23;13.83;;;;;;;20.09;48.60;98063.19;5013934;28;20961;-70
2022/05/08 08:19:11;;;;;;;17.20;14.47;;;;;;;20.17;48.28;98060.38;5013760;28;20477;-68
2022/05/08 08:21:36;;;;;;;13.80;12.50;;;;;;;20.27;48.50;98062.72;5014000;28;20200;-71
2022/05/08 08:24:02;;;;;;;15.23;13.63;;;;;;;20.37;48.24;98060.53;5013656;28;20190;-69
2022/05/08 08:26:27;;;;;;;15.93;13.63;;;;;;;20.43;47.32;98069.56;5014173;28;20271;-70
2022/05/08 08:28:53;;;;;;;15.70;14.13;;;;;;;20.49;47.50;98066.13;5014198;28;20184;-70
2022/05/08 08:31:18;;;;;;;14.97;13.50;;;;;;;20.59;47.33;98070.28;5013413;28;20243;-69
2022/05/08 08:33:48;;;;;;;13.93;12.63;;;;;;;20.66;46.70;98071.97;5014398;28;20180;-71
2022/05/08 08:36:14;;;;;;;15.40;13.90;;;;;;;20.83;46.67;98069.00;4982429;28;20215;-70
2022/05/08 08:38:40;;;;;;;15.07;13.50;;;;;;;20.97;45.99;98070.72;5014114;28;20629;-70
2022/05/08 08:41:07;;;;;;;15.23;13.83;;;;;;;21.10;45.85;98072.63;5014571;28;20204;-69
2022/05/08 08:47:42;;;;;;;14.03;12.50;;;;;;;21.25;45.66;98064.47;4996592;28;20514;-67
2022/05/08 08:49:21;;;;;;;18.03;13.47;;;;;;;21.58;44.76;98060.25;5013950;28;20538;-70
2022/05/08 08:51:48;;;;;;;14.57;13.07;;;;;;;21.79;43.85;98059.28;5014751;28;20497;-68
2022/05/08 08:54:14;;;;;;;15.70;14.00;;;;;;;21.98;43.41;98060.31;5013333;28;21196;-69
2022/05/08 08:56:40;;;;;;;14.90;13.30;;;;;;;22.15;43.13;98059.88;4995776;28;20489;-69
2022/05/08 08:59:05;;;;;;;14.30;12.90;;;;;;;22.30;42.12;98060.50;5016700;28;20419;-71
2022/05/08 09:01:42;;;;;;;12.77;11.47;;;;;;;22.48;42.06;98061.75;4997056;28;20208;-69
2022/05/08 09:04:09;;;;;;;13.90;12.40;;;;;;;22.40;41.69;98068.09;5013225;28;20238;-71
2022/05/08 09:06:44;;;;;;;11.20;10.10;;;;;;;22.60;41.54;98064.56;4994280;28;20423;-69
2022/05/08 09:09:26;;;;;;;13.53;10.83;;;;;;;22.63;41.50;98064.97;5013152;28;20890;-69
2022/05/08 09:11:55;;;;;;;11.77;10.70;;;;;;;22.74;41.09;98071.53;5013119;28;20447;-69
2022/05/08 09:14:35;;;;;;;12.53;11.23;;;;;;;22.77;40.90;98063.09;5013052;28;20495;-70
2022/05/08 09:17:02;;;;;;;12.20;10.90;;;;;;;22.74;40.93;98066.19;5012616;28;20458;-71
2022/05/08 09:19:36;;;;;;;11.17;10.10;;;;;;;22.81;40.37;98066.97;5013193;28;20435;-69
2022/05/08 09:22:03;;;;;;;15.63;10.17;;;;;;;22.96;40.21;98060.56;4995327;28;20971;-69
2022/05/08 09:24:30;;;;;;;11.43;10.20;;;;;;;23.01;39.91;98063.44;5012599;28;20850;-70
2022/05/08 09:27:12;;;;;;;10.30;9.30;;;;;;;23.13;39.72;98056.38;5012863;28;20478;-70
2022/05/08 09:29:38;;;;;;;13.20;9.83;;;;;;;23.36;39.55;98060.41;4973119;28;20446;-70
2022/05/08 09:32:04;;;;;;;11.30;10.10;;;;;;;23.51;39.50;98053.94;5012291;28;20455;-71
2022/05/08 09:34:29;;;;;;;10.77;9.67;;;;;;;23.68;38.28;98060.44;4978943;28;20554;-70
2022/05/08 09:37:06;;;;;;;11.27;9.63;;;;;;;23.57;38.03;98050.41;5012734;28;20465;-69
2022/05/08 09:39:31;;;;;;;10.63;9.40;;;;;;;23.70;38.36;98053.00;5006339;28;20180;-69
2022/05/08 09:41:57;;;;;;;11.10;10.00;;;;;;;23.64;38.41;98053.88;5012589;28;20464;-68
2022/05/08 09:44:22;;;;;;;10.00;9.00;;;;;;;23.72;38.14;98050.91;4995000;28;20187;-69
2022/05/08 09:46:51;;;;;;;15.47;10.30;;;;;;;23.70;37.98;98053.00;5012360;28;20207;-68
2022/05/08 09:49:24;;;;;;;14.83;10.60;;;;;;;23.75;37.81;98057.72;5012559;28;20189;-70
2022/05/08 09:51:50;;;;;;;22.37;20.00;;;;;;;23.92;38.08;98061.47;4995184;28;20950;-70
2022/05/08 09:54:17;;;;;;;14.67;13.13;;;;;;;24.07;37.25;98061.19;5013387;28;20462;-69
2022/05/08 09:56:44;;;;;;;19.47;17.33;;;;;;;24.14;37.09;98058.44;4994923;28;20465;-70
2022/05/08 09:59:10;;;;;;;11.37;10.33;;;;;;;24.23;37.29;98061.66;4995046;28;20520;-69
2022/05/08 10:01:40;;;;;;;22.83;20.53;;;;;;;24.35;37.46;98056.41;5012167;28;20491;-69
2022/05/08 10:04:05;;;;;;;12.93;11.53;;;;;;;24.41;37.85;98058.19;5012315;28;20497;-70
2022/05/08 10:06:33;;;;;;;11.03;9.90;;;;;;;24.46;36.49;98055.69;5012093;28;20416;-68
2022/05/08 10:13:53;;;;;;;15.40;13.80;;;;;;;24.56;37.37;98049.81;4994804;28;20194;-71
2022/05/08 10:14:30;;;;;;;8.33;7.53;;;;;;;24.72;35.89;98048.44;5001873;28;20925;-69
2022/05/08 10:17:03;;;;;;;8.33;7.23;;;;;;;24.78;35.03;98049.41;5011060;28;20477;-70
2022/05/08 10:19:29;;;;;;;9.47;8.50;;;;;;;24.87;34.87;98049.94;5012327;28;20180;-70
2022/05/08 10:21:59;;;;;;;8.63;7.83;;;;;;;24.84;35.42;98048.50;5012184;28;20455;-69
2022/05/08 10:24:51;;;;;;;8.80;8.00;;;;;;;24.84;35.52;98052.00;5011979;28;20635;-69
2022/05/08 10:27:22;;;;;;;8.27;7.67;;;;;;;24.96;36.09;98052.06;5011920;28;20431;-70
2022/05/08 10:29:50;;;;;;;9.63;8.63;;;;;;;24.95;35.53;98047.75;5012070;28;20976;-69
2022/05/08 10:32:28;;;;;;;9.67;8.40;;;;;;;24.89;34.55;98043.28;5011302;28;20494;-69
2022/05/08 10:35:07;;;;;;;8.00;7.20;;;;;;;25.08;34.60;98051.28;5011472;28;20423;-71
2022/05/08 10:37:34;;;;;;;9.30;7.83;;;;;;;25.27;34.54;98036.81;5004786;28;20478;-70
2022/05/08 10:40:00;;;;;;;8.33;7.63;;;;;;;25.15;34.58;98046.69;5011699;28;20503;-72
2022/05/08 10:42:39;;;;;;;8.30;7.60;;;;;;;25.43;34.60;98038.06;5011738;28;20481;-71
2022/05/08 10:45:05;;;;;;;7.63;6.87;;;;;;;25.76;33.78;98038.63;4994091;28;20933;-71
2022/05/08 10:47:34;;;;;;;7.57;6.80;;;;;;;25.99;34.07;98031.66;5011310;28;20438;-69
2022/05/08 10:50:04;;;;;;;12.03;9.07;;;;;;;25.92;32.88;98029.91;5011318;28;20780;-71
2022/05/08 10:52:31;;;;;;;8.40;7.60;;;;;;;26.03;33.49;98033.63;5011605;28;20423;-71
2022/05/08 10:55:02;;;;;;;8.50;7.50;;;;;;;25.96;33.54;98029.44;5011183;28;20481;-69
2022/05/08 10:57:32;;;;;;;8.27;6.97;;;;;;;26.13;33.01;98032.28;4988315;28;20484;-69
2022/05/08 10:59:59;;;;;;;5.77;5.17;;;;;;;26.08;32.33;98027.59;5011297;28;20671;-69
2022/05/08 11:02:44;;;;;;;6.40;5.83;;;;;;;26.12;31.13;98018.03;5011193;28;20431;-70
2022/05/08 11:05:10;;;;;;;5.73;5.23;;;;;;;26.17;30.92;98015.47;5011349;28;20451;-69
2022/05/08 11:07:47;;;;;;;5.57;5.07;;;;;;;26.30;30.51;98019.75;5011087;28;20434;-69
2022/05/08 11:10:16;;;;;;;7.40;5.30;;;;;;;26.24;30.41;98017.19;5010882;28;20454;-71
2022/05/08 11:13:02;;;;;;;5.30;4.90;;;;;;;26.29;30.34;98028.06;5011506;28;20427;-69
2022/05/08 11:15:28;;;;;;;8.50;4.93;;;;;;;26.33;30.76;98034.63;4986511;28;20675;-70
2022/05/08 11:18:18;;;;;;;4.50;4.10;;;;;;;26.39;30.00;98028.28;5010872;28;20427;-69
2022/05/08 11:20:47;;;;;;;6.23;4.17;;;;;;;26.56;30.14;98035.66;4988377;28;20925;-70
2022/05/08 11:23:14;;;;;;;5.80;4.93;;;;;;;26.59;29.67;98035.97;5010503;28;20439;-69
2022/05/08 11:25:40;;;;;;;6.50;4.33;;;;;;;26.25;30.11;98037.63;5011054;28;20419;-70
2022/05/08 11:28:13;;;;;;;5.33;4.83;;;;;;;26.37;30.08;98041.97;4993300;28;20439;-69
2022/05/08 11:30:39;;;;;;;5.13;4.63;;;;;;;26.63;29.77;98033.63;5014860;28;20479;-69
2022/05/08 11:36:08;;;;;;;4.80;4.40;;;;;;;26.39;29.18;98044.41;5015106;28;20254;-69
2022/05/08 11:38:52;;;;;;;7.33;4.20;;;;;;;26.48;29.06;98042.19;5015107;28;20461;-69
2022/05/08 11:41:22;;;;;;;4.53;4.03;;;;;;;26.88;29.04;98035.25;5014591;28;20455;-69
2022/05/08 11:43:55;;;;;;;8.10;4.77;;;;;;;26.89;29.16;98032.34;5014815;28;20455;-69